Time;durP1;ratioP1;P1;durP2;ratioP2;P2;SDS_P1;SDS_P2;PMS_P1;PMS_P2;Temp;Humidity;BMP_temperature;BMP_pressure;BME280_temperature;BME280_humidity;BME280_pressure;Samples;Min_cycle;Max_cycle;Signal;HPM_P1;HPM_P2
2023/12/25 00:01:58;;;;;;;21.67;4.60;;;;;;;13.98;76.79;100984.53;5036198;28;20060;-61
2023/12/25 00:04:26;;;;;;;33.13;9.15;;;;;;;13.97;76.49;100984.88;5033697;28;20064;-62
2023/12/25 00:06:53;;;;;;;55.88;18.58;;;;;;;13.92;76.60;100985.06;5050867;28;20037;-61
2023/12/25 00:09:21;;;;;;;24.30;4.20;;;;;;;13.80;76.98;100994.03;5035037;28;20297;-61
2023/12/25 00:11:48;;;;;;;26.05;5.03;;;;;;;13.48;78.34;101000.09;5053084;28;20056;-61
2023/12/25 00:14:27;;;;;;;20.77;4.78;;;;;;;13.54;78.67;101001.56;5034909;28;20053;-62
2023/12/25 00:16:55;;;;;;;22.75;4.30;;;;;;;13.60;78.45;101002.22;5046376;28;20049;-65
2023/12/25 00:19:22;;;;;;;23.38;4.57;;;;;;;13.85;77.34;100998.59;5043608;28;20056;-59
2023/12/25 00:21:49;;;;;;;23.95;5.00;;;;;;;13.99;76.47;100999.22;5014616;28;20045;-65
2023/12/25 00:24:40;;;;;;;22.02;4.57;;;;;;;14.22;75.61;100998.69;5031647;28;20559;-69
2023/12/25 00:27:10;;;;;;;24.15;5.00;;;;;;;13.95;76.45;100987.16;5005697;28;20041;-66
2023/12/25 00:29:37;;;;;;;21.52;4.82;;;;;;;13.79;77.21;100989.63;5052573;28;20045;-66
2023/12/25 00:32:05;;;;;;;24.83;5.05;;;;;;;13.76;77.73;100992.25;5052316;28;20053;-66
2023/12/25 00:34:32;;;;;;;21.92;4.38;;;;;;;13.82;77.65;100991.75;5052402;28;20048;-66
2023/12/25 00:37:00;;;;;;;18.83;4.75;;;;;;;14.05;76.66;100997.91;5030885;28;20042;-65
2023/12/25 00:39:27;;;;;;;27.77;6.13;;;;;;;14.15;75.76;100998.38;4997785;28;20404;-65
2023/12/25 00:41:54;;;;;;;22.92;4.63;;;;;;;13.88;76.47;100992.41;5044422;28;20045;-65
2023/12/25 00:44:22;;;;;;;32.33;4.40;;;;;;;13.68;78.01;100993.91;5032671;28;20053;-65
2023/12/25 00:46:49;;;;;;;22.73;4.32;;;;;;;13.85;77.54;100984.75;5035711;28;20044;-65
2023/12/25 00:49:18;;;;;;;30.33;4.32;;;;;;;13.77;77.87;100993.88;5037565;28;20160;-60
2023/12/25 00:51:46;;;;;;;23.70;4.22;;;;;;;13.88;78.19;100997.94;5022678;28;20069;-60
2023/12/25 00:54:13;;;;;;;25.58;4.65;;;;;;;14.18;76.75;100992.16;5036595;28;20045;-60
2023/12/25 00:56:40;;;;;;;24.10;3.85;;;;;;;13.87;76.94;100999.06;5037845;28;20045;-60
2023/12/25 00:59:11;;;;;;;27.27;4.38;;;;;;;13.83;77.63;100998.91;5038296;28;20403;-62
2023/12/25 01:01:39;;;;;;;27.40;4.70;;;;;;;13.91;77.40;101000.06;5038694;28;20060;-60
2023/12/25 01:04:06;;;;;;;25.77;4.70;;;;;;;13.95;77.02;100996.28;5026513;28;20048;-61
2023/12/25 01:06:33;;;;;;;23.83;4.28;;;;;;;13.83;77.30;100995.31;5054421;28;20048;-61
2023/12/25 01:09:01;;;;;;;20.77;4.32;;;;;;;13.88;77.66;101001.50;5034094;28;20054;-60
2023/12/25 01:11:28;;;;;;;26.38;4.40;;;;;;;14.01;77.27;100997.75;5035972;28;20056;-60
2023/12/25 01:13:56;;;;;;;28.42;4.70;;;;;;;13.88;77.37;101000.72;5043305;28;20061;-61
2023/12/25 01:16:23;;;;;;;27.27;4.53;;;;;;;13.56;79.36;101002.84;5017819;28;20049;-61
2023/12/25 01:18:51;;;;;;;19.77;3.47;;;;;;;13.81;78.44;101008.72;5021094;28;20057;-61
2023/12/25 01:21:18;;;;;;;19.45;4.18;;;;;;;13.89;78.08;100999.56;5055425;28;20049;-61
2023/12/25 01:23:46;;;;;;;22.33;4.18;;;;;;;13.79;78.83;100997.94;5054226;28;20708;-61
2023/12/25 01:26:20;;;;;;;27.38;5.45;;;;;;;13.80;78.85;100990.47;5038197;28;20045;-62
2023/12/25 01:28:58;;;;;;;24.45;4.70;;;;;;;13.92;78.19;100991.41;5024867;28;20404;-61
2023/12/25 01:31:25;;;;;;;24.83;4.53;;;;;;;13.89;78.49;100994.03;5016453;28;20053;-61
2023/12/25 01:33:52;;;;;;;21.92;4.53;;;;;;;13.87;78.46;100990.78;5037322;28;20048;-62
2023/12/25 01:36:20;;;;;;;23.08;4.43;;;;;;;13.82;78.80;100979.88;5054076;28;20057;-61
2023/12/25 01:38:47;;;;;;;23.50;3.97;;;;;;;13.86;78.13;100983.63;5018877;28;20060;-61
2023/12/25 01:41:15;;;;;;;23.23;4.20;;;;;;;13.79;79.29;100981.31;5036665;28;20048;-61
2023/12/25 01:43:46;;;;;;;20.40;4.57;;;;;;;13.72;79.34;100980.22;5036488;28;20057;-61
2023/12/25 01:46:14;;;;;;;22.77;4.68;;;;;;;13.64;79.70;100973.53;5061948;28;20424;-60
2023/12/25 01:48:41;;;;;;;19.52;4.22;;;;;;;13.74;79.52;100970.44;5043021;28;20493;-59
2023/12/25 01:51:09;;;;;;;24.88;4.93;;;;;;;13.95;79.10;100968.59;5056416;28;20053;-61
2023/12/25 01:53:37;;;;;;;22.77;4.38;;;;;;;13.84;79.16;100960.97;5033107;28;20072;-60
2023/12/25 01:56:05;;;;;;;20.98;4.25;;;;;;;13.87;79.31;100966.66;5016378;28;20556;-59
2023/12/25 01:58:32;;;;;;;25.05;4.32;;;;;;;13.86;79.46;100964.22;5028003;28;20053;-62
2023/12/25 02:01:00;;;;;;;26.52;5.40;;;;;;;13.82;79.80;100966.03;5033595;28;20511;-60
2023/12/25 02:03:27;;;;;;;27.35;4.88;;;;;;;13.84;79.39;100958.22;5017307;28;20056;-61
2023/12/25 02:05:56;;;;;;;19.95;3.65;;;;;;;14.02;79.18;100960.59;5034100;28;20045;-61
2023/12/25 02:08:24;;;;;;;20.33;4.07;;;;;;;13.98;78.37;100962.38;5000409;28;20049;-61
2023/12/25 02:10:51;;;;;;;22.65;4.13;;;;;;;13.62;80.04;100964.75;5000304;28;20065;-61
2023/12/25 02:13:20;;;;;;;20.98;3.83;;;;;;;13.70;80.07;100963.13;5000888;28;20049;-59
2023/12/25 02:15:48;;;;;;;20.85;3.63;;;;;;;13.76;80.03;100970.09;5000707;28;20045;-60
2023/12/25 02:18:16;;;;;;;28.38;5.10;;;;;;;13.84;79.52;100972.06;5016992;28;20049;-65
2023/12/25 02:20:44;;;;;;;17.63;4.13;;;;;;;13.83;79.60;100975.94;5015308;28;20534;-65
2023/12/25 02:23:32;;;;;;;24.10;4.10;;;;;;;13.87;79.26;100976.94;5033400;28;20049;-65
2023/12/25 02:26:02;;;;;;;24.88;4.30;;;;;;;14.00;79.19;100978.69;5033149;28;20057;-65
2023/12/25 02:28:31;;;;;;;18.02;4.45;;;;;;;14.09;78.24;100985.00;5024671;28;20049;-64
2023/12/25 02:30:59;;;;;;;22.40;4.38;;;;;;;13.83;79.64;100990.63;5016965;28;20061;-67
2023/12/25 02:33:32;;;;;;;21.52;3.85;;;;;;;13.69;80.71;100992.75;5017169;28;20049;-66
2023/12/25 02:36:03;;;;;;;28.42;3.97;;;;;;;13.72;80.67;100985.75;5034599;28;20053;-66
2023/12/25 02:38:44;;;;;;;21.45;4.45;;;;;;;13.64;80.98;100983.78;5017185;28;20076;-64
2023/12/25 02:41:11;;;;;;;23.42;3.85;;;;;;;13.84;80.21;100980.34;5015362;28;20060;-61
2023/12/25 02:43:39;;;;;;;23.90;4.10;;;;;;;13.88;79.75;100976.59;5000459;28;20539;-60
2023/12/25 02:46:06;;;;;;;22.20;3.88;;;;;;;14.14;79.51;100990.41;5029992;28;20060;-60
2023/12/25 02:48:33;;;;;;;17.90;3.25;;;;;;;13.88;79.52;100976.59;5031676;28;20050;-60
2023/12/25 02:51:01;;;;;;;21.95;3.97;;;;;;;13.98;79.60;100983.75;5033653;28;20050;-61
2023/12/25 02:53:30;;;;;;;21.35;3.72;;;;;;;13.79;79.91;100988.84;5052386;28;20076;-62
2023/12/25 02:55:57;;;;;;;23.23;3.50;;;;;;;14.06;80.07;100994.81;5024452;28;20061;-61
2023/12/25 02:58:24;;;;;;;25.58;4.18;;;;;;;14.10;79.74;100993.00;5028965;28;20488;-64
2023/12/25 03:00:51;;;;;;;21.38;3.55;;;;;;;13.97;79.57;101005.09;5051930;28;20060;-65
2023/12/25 03:03:19;;;;;;;16.92;3.53;;;;;;;13.70;80.87;100996.34;5053888;28;20061;-65
2023/12/25 03:05:46;;;;;;;25.25;4.38;;;;;;;13.78;81.98;100995.50;5051848;28;20049;-61
2023/12/25 03:08:14;;;;;;;24.23;4.43;;;;;;;13.67;81.87;100989.50;5052155;28;20060;-60
2023/12/25 03:10:41;;;;;;;19.80;3.67;;;;;;;13.56;82.20;100994.53;5034830;28;20064;-61
2023/12/25 03:13:09;;;;;;;20.63;3.20;;;;;;;13.88;81.41;100986.88;5052073;28;20290;-61
2023/12/25 03:15:37;;;;;;;24.65;4.18;;;;;;;13.85;81.64;100981.97;5028064;28;20049;-61
2023/12/25 03:18:04;;;;;;;20.67;3.58;;;;;;;13.62;82.84;100994.38;5018986;28;20241;-60
2023/12/25 03:20:32;;;;;;;26.42;4.47;;;;;;;13.85;82.03;100982.78;5052265;28;20056;-60
2023/12/25 03:22:59;;;;;;;18.15;3.35;;;;;;;13.73;82.31;100984.59;5018207;28;20084;-60
2023/12/25 03:25:26;;;;;;;20.33;3.92;;;;;;;13.54;82.91;100987.72;5031288;28;20372;-60
2023/12/25 03:27:54;;;;;;;24.63;3.65;;;;;;;13.71;83.10;100984.09;5031264;28;20037;-60
2023/12/25 03:30:22;;;;;;;18.27;3.63;;;;;;;13.56;83.17;100989.00;5031692;28;20053;-60
2023/12/25 03:32:49;;;;;;;15.10;3.20;;;;;;;13.36;84.82;100978.59;5036092;28;20309;-61
2023/12/25 03:35:17;;;;;;;19.63;3.17;;;;;;;13.61;84.18;100984.44;5052177;28;20429;-60
2023/12/25 03:37:46;;;;;;;21.73;3.53;;;;;;;13.57;84.26;100984.28;5035310;28;20049;-61
2023/12/25 03:40:13;;;;;;;23.10;3.97;;;;;;;13.64;83.97;100976.31;5051892;28;20440;-61
2023/12/25 03:42:40;;;;;;;17.55;3.67;;;;;;;13.78;84.12;100974.19;5052963;28;20048;-60
2023/12/25 03:45:08;;;;;;;23.55;4.40;;;;;;;13.83;83.82;100978.72;5034707;28;20550;-61
2023/12/25 03:47:36;;;;;;;17.95;3.58;;;;;;;13.78;83.82;100978.88;5033734;28;20048;-60
2023/12/25 03:50:03;;;;;;;17.95;3.55;;;;;;;13.73;83.88;100981.84;5034612;28;20404;-60
2023/12/25 03:52:31;;;;;;;16.08;3.67;;;;;;;13.67;84.47;100978.41;5034110;28;20045;-61
2023/12/25 03:54:58;;;;;;;20.38;3.50;;;;;;;13.66;84.66;100973.22;5034609;28;20044;-60
2023/12/25 03:57:25;;;;;;;20.63;3.38;;;;;;;13.74;84.50;100975.16;5011078;28;20049;-61
2023/12/25 03:59:53;;;;;;;18.60;3.38;;;;;;;13.82;84.29;100964.06;5034391;28;20642;-60
2023/12/25 04:02:20;;;;;;;19.90;3.47;;;;;;;13.79;84.00;100964.72;5034494;28;20049;-60
2023/12/25 04:04:48;;;;;;;19.63;3.50;;;;;;;13.84;83.86;100961.81;5051052;28;20056;-60
2023/12/25 04:07:16;;;;;;;16.05;2.78;;;;;;;13.66;84.18;100971.25;5052806;28;20049;-60
2023/12/25 04:09:44;;;;;;;15.50;2.50;;;;;;;13.52;84.93;100973.41;5051244;28;20058;-60
2023/12/25 04:12:11;;;;;;;17.33;2.78;;;;;;;13.43;85.29;100969.81;5034735;28;20056;-60
2023/12/25 04:14:39;;;;;;;18.27;2.53;;;;;;;13.50;85.21;100972.91;5052500;28;20049;-62
2023/12/25 04:17:07;;;;;;;15.85;2.80;;;;;;;13.64;84.36;100959.69;5052369;28;20045;-61
2023/12/25 04:19:34;;;;;;;16.08;2.90;;;;;;;13.57;84.86;100948.31;5033313;28;20053;-60
2023/12/25 04:22:02;;;;;;;18.48;3.45;;;;;;;13.36;85.62;100953.72;5013545;28;20057;-65
2023/12/25 04:24:29;;;;;;;13.63;3.05;;;;;;;13.15;86.74;100949.97;5040222;28;20045;-64
2023/12/25 04:26:56;;;;;;;10.15;2.35;;;;;;;13.32;86.93;100947.19;5042850;28;20582;-66
2023/12/25 04:29:24;;;;;;;18.23;3.13;;;;;;;13.44;86.27;100939.03;5033608;28;20064;-65
2023/12/25 04:31:52;;;;;;;20.80;3.00;;;;;;;13.49;85.84;100933.34;5034342;28;20061;-64
2023/12/25 04:34:20;;;;;;;15.10;2.65;;;;;;;13.52;85.96;100932.69;5033993;28;20049;-60
2023/12/25 04:36:47;;;;;;;14.13;2.70;;;;;;;13.68;85.28;100927.47;5050934;28;20504;-59
2023/12/25 04:39:15;;;;;;;22.27;3.55;;;;;;;13.56;85.39;100932.84;5034208;28;20056;-66
2023/12/25 04:41:42;;;;;;;15.32;2.30;;;;;;;13.56;85.33;100933.66;5034770;28;20408;-66
2023/12/25 04:44:10;;;;;;;14.70;2.75;;;;;;;13.82;84.83;100936.38;5034093;28;20045;-65
2023/12/25 04:46:39;;;;;;;12.55;2.40;;;;;;;13.43;85.77;100933.84;5051305;28;20064;-65
2023/12/25 04:49:07;;;;;;;16.92;2.70;;;;;;;13.51;86.66;100933.03;5035221;28;20045;-65
2023/12/25 04:51:35;;;;;;;15.02;2.60;;;;;;;13.38;86.75;100932.06;5031108;28;20073;-66
2023/12/25 04:54:02;;;;;;;15.63;2.85;;;;;;;13.52;86.97;100940.19;5040651;28;20053;-64
2023/12/25 04:56:42;;;;;;;11.65;2.90;;;;;;;13.51;86.12;100939.34;5001406;28;20049;-64
2023/12/25 04:59:12;;;;;;;16.63;2.07;;;;;;;13.61;86.43;100927.16;5030996;28;20041;-65
2023/12/25 05:01:43;;;;;;;14.05;2.55;;;;;;;13.67;85.83;100938.88;5033421;28;20310;-64
2023/12/25 05:04:13;;;;;;;12.15;2.05;;;;;;;13.68;85.37;100934.94;5033035;28;20056;-66
2023/12/25 05:06:43;;;;;;;12.18;2.00;;;;;;;13.71;85.01;100939.81;5051562;28;20060;-65
2023/12/25 05:09:11;;;;;;;14.10;2.40;;;;;;;13.72;84.77;100956.09;5030398;28;20037;-65
2023/12/25 05:11:38;;;;;;;13.73;2.17;;;;;;;13.90;84.73;100951.34;5030621;28;20053;-61
2023/12/25 05:14:06;;;;;;;18.10;2.47;;;;;;;13.72;84.92;100936.72;5017656;28;20064;-59
2023/12/25 05:16:33;;;;;;;10.15;1.90;;;;;;;13.69;84.68;100931.84;5017104;28;20053;-59
2023/12/25 05:19:00;;;;;;;8.32;1.98;;;;;;;13.85;84.17;100940.44;5001353;28;20048;-60
2023/12/25 05:21:28;;;;;;;11.98;1.90;;;;;;;13.61;84.21;100938.22;5017580;28;20071;-62
2023/12/25 05:23:55;;;;;;;11.23;1.98;;;;;;;13.39;86.08;100928.16;5050458;28;20060;-60
2023/12/25 05:26:44;;;;;;;9.68;1.75;;;;;;;13.45;86.40;100924.09;5051618;28;20049;-62
2023/12/25 05:29:15;;;;;;;11.63;2.08;;;;;;;13.52;86.58;100920.81;5051754;28;20391;-62
2023/12/25 05:31:47;;;;;;;13.18;1.83;;;;;;;13.53;86.44;100922.41;5037403;28;20051;-61
2023/12/25 05:34:17;;;;;;;11.38;2.00;;;;;;;13.64;85.63;100933.97;5054956;28;20049;-62
2023/12/25 05:36:45;;;;;;;9.52;1.30;;;;;;;13.46;85.88;100934.00;5055637;28;20072;-59
2023/12/25 05:39:19;;;;;;;14.45;2.08;;;;;;;13.38;87.04;100945.91;5055139;28;20044;-61
2023/12/25 05:41:46;;;;;;;8.40;1.25;;;;;;;13.37;86.45;100940.69;5037424;28;20048;-61
2023/12/25 05:44:13;;;;;;;6.00;1.38;;;;;;;13.21;87.48;100936.78;5021039;28;20049;-61
2023/12/25 05:46:41;;;;;;;8.00;1.73;;;;;;;13.11;87.74;100931.59;5053980;28;20056;-60
2023/12/25 05:49:09;;;;;;;7.95;1.45;;;;;;;13.37;87.77;100927.66;5036161;28;20049;-61
2023/12/25 05:51:38;;;;;;;8.98;1.30;;;;;;;13.26;87.70;100922.78;5036982;28;20672;-59
2023/12/25 05:54:08;;;;;;;8.10;1.55;;;;;;;13.18;87.79;100923.63;5037077;28;20068;-61
2023/12/25 05:56:39;;;;;;;9.48;1.60;;;;;;;13.30;87.92;100912.72;5003724;28;20045;-60
2023/12/25 05:59:27;;;;;;;7.03;1.30;;;;;;;13.30;87.20;100913.50;5035915;28;20056;-62
2023/12/25 06:01:54;;;;;;;7.95;1.65;;;;;;;13.34;86.98;100916.44;5053178;28;20060;-61
2023/12/25 06:04:21;;;;;;;6.80;1.50;;;;;;;13.51;85.92;100925.53;5017051;28;20056;-59
2023/12/25 06:06:50;;;;;;;6.63;1.10;;;;;;;13.28;87.03;100923.28;5016586;28;20064;-60
2023/12/25 06:09:17;;;;;;;7.63;1.23;;;;;;;13.27;86.73;100921.63;5032526;28;20056;-60
2023/12/25 06:11:44;;;;;;;6.85;1.25;;;;;;;13.37;86.51;100924.88;5019925;28;20060;-61
2023/12/25 06:14:11;;;;;;;6.55;1.38;;;;;;;13.31;86.57;100925.38;4999882;28;20501;-62
2023/12/25 06:16:39;;;;;;;8.60;1.65;;;;;;;13.26;86.84;100926.38;5053322;28;20078;-59
2023/12/25 06:19:06;;;;;;;9.32;1.08;;;;;;;13.40;87.01;100934.50;5029677;28;20045;-61
2023/12/25 06:21:34;;;;;;;8.23;1.65;;;;;;;13.34;86.77;100944.91;5017814;28;20049;-61
2023/12/25 06:24:01;;;;;;;6.88;1.30;;;;;;;13.30;87.19;100937.59;5054586;28;20052;-60
2023/12/25 06:26:29;;;;;;;7.07;1.08;;;;;;;13.24;87.44;100955.50;5020251;28;20484;-60
2023/12/25 06:28:59;;;;;;;5.38;1.40;;;;;;;13.39;87.43;100960.53;5054526;28;20441;-60
2023/12/25 06:31:26;;;;;;;6.90;1.10;;;;;;;13.64;86.04;100961.66;5034474;28;20412;-61
2023/12/25 06:33:54;;;;;;;6.07;1.00;;;;;;;13.78;84.28;100953.97;5013556;28;20041;-60
2023/12/25 06:36:21;;;;;;;6.72;0.98;;;;;;;13.64;85.27;100950.56;5015907;28;20060;-60
2023/12/25 06:38:48;;;;;;;4.78;1.00;;;;;;;13.42;85.53;100954.34;4999674;28;20064;-61
2023/12/25 06:41:15;;;;;;;6.60;1.02;;;;;;;13.45;86.32;100957.28;5034270;28;20060;-61
2023/12/25 06:43:43;;;;;;;5.10;0.98;;;;;;;13.78;85.53;100946.50;5033690;28;20520;-61
2023/12/25 06:46:10;;;;;;;6.25;1.00;;;;;;;13.78;84.07;100952.03;5044762;28;20049;-60
2023/12/25 06:48:38;;;;;;;9.65;0.90;;;;;;;13.58;85.42;100959.06;5044173;28;20045;-61
2023/12/25 06:51:06;;;;;;;2.72;0.75;;;;;;;13.70;86.15;100952.88;5016568;28;20064;-61
2023/12/25 06:53:34;;;;;;;6.13;0.90;;;;;;;13.45;86.98;100962.00;5016211;28;20479;-61
2023/12/25 06:56:02;;;;;;;3.42;0.70;;;;;;;13.61;86.76;100963.13;5016233;28;20053;-62
2023/12/25 06:58:29;;;;;;;4.20;1.00;;;;;;;13.67;86.09;100975.66;5047528;28;20057;-60
2023/12/25 07:00:59;;;;;;;6.53;1.05;;;;;;;13.80;85.13;100974.66;5036340;28;20063;-61
2023/12/25 07:03:26;;;;;;;5.55;1.00;;;;;;;13.87;85.31;100977.75;5036040;28;20064;-60
2023/12/25 07:05:53;;;;;;;5.15;0.90;;;;;;;13.88;84.57;100971.06;5018348;28;20057;-62
2023/12/25 07:08:21;;;;;;;3.10;0.68;;;;;;;13.94;84.06;100966.97;5053689;28;20049;-61
2023/12/25 07:10:48;;;;;;;3.60;0.90;;;;;;;13.93;83.96;100968.09;5015720;28;20049;-61
2023/12/25 07:13:16;;;;;;;3.50;0.80;;;;;;;13.77;84.79;100982.81;5016236;28;20049;-61
2023/12/25 07:15:43;;;;;;;6.25;0.82;;;;;;;13.72;85.03;100978.25;5024161;28;20054;-61
2023/12/25 07:18:10;;;;;;;7.78;1.52;;;;;;;13.46;86.45;100989.34;5036867;28;20052;-61
2023/12/25 07:20:38;;;;;;;4.40;0.90;;;;;;;13.61;85.67;100978.91;5016842;28;20037;-61
2023/12/25 07:23:05;;;;;;;5.07;1.35;;;;;;;13.70;85.75;100988.84;4999339;28;20045;-60
2023/12/25 07:25:32;;;;;;;6.70;1.20;;;;;;;13.60;86.13;100991.94;5035817;28;20048;-60
2023/12/25 07:27:59;;;;;;;8.63;1.20;;;;;;;13.63;85.52;100982.19;5041725;28;20052;-60
2023/12/25 07:30:27;;;;;;;3.70;0.70;;;;;;;13.75;85.31;100985.91;5033718;28;20133;-60
2023/12/25 07:32:54;;;;;;;5.53;1.00;;;;;;;13.79;85.30;100992.41;4998302;28;20053;-61
2023/12/25 07:35:22;;;;;;;4.38;0.98;;;;;;;13.59;86.38;101004.16;5015961;28;20068;-59
2023/12/25 07:37:49;;;;;;;3.05;0.70;;;;;;;13.39;86.74;101000.09;5015008;28;20057;-61
2023/12/25 07:40:16;;;;;;;5.18;0.82;;;;;;;13.39;86.88;101008.38;5031003;28;20049;-60
2023/12/25 07:42:44;;;;;;;7.50;1.10;;;;;;;13.57;86.50;101017.50;5033176;28;20517;-59
2023/12/25 07:45:12;;;;;;;2.28;0.60;;;;;;;13.71;85.85;101017.31;5015634;28;20049;-61
2023/12/25 07:47:46;;;;;;;4.13;0.65;;;;;;;13.66;85.56;101012.78;5014951;28;20051;-67
2023/12/25 07:50:20;;;;;;;5.25;0.90;;;;;;;13.47;85.96;101010.34;5015924;28;20045;-64
2023/12/25 07:52:48;;;;;;;7.38;1.30;;;;;;;13.53;86.05;101017.34;5015085;28;20282;-61
2023/12/25 07:55:15;;;;;;;7.80;0.98;;;;;;;13.60;85.62;101018.81;5032880;28;20080;-65
2023/12/25 07:57:42;;;;;;;4.85;0.70;;;;;;;13.29;87.28;101030.03;5039966;28;20053;-64
2023/12/25 08:00:10;;;;;;;6.43;0.90;;;;;;;13.38;87.41;101019.78;5033693;28;20064;-61
2023/12/25 08:02:38;;;;;;;5.15;1.05;;;;;;;13.27;87.54;101024.81;5018247;28;20050;-65
2023/12/25 08:05:06;;;;;;;5.00;0.70;;;;;;;13.30;87.40;101021.41;5034585;28;20077;-65
2023/12/25 08:07:34;;;;;;;4.40;0.90;;;;;;;13.36;87.32;101020.13;5051627;28;20056;-61
2023/12/25 08:10:02;;;;;;;5.05;1.15;;;;;;;13.39;87.11;101013.91;5034732;28;20041;-62
2023/12/25 08:12:42;;;;;;;5.10;1.02;;;;;;;13.50;86.68;101008.88;5035394;28;20314;-62
2023/12/25 08:15:13;;;;;;;3.53;0.80;;;;;;;13.72;84.96;101013.44;5035470;28;20037;-66
2023/12/25 08:17:41;;;;;;;4.55;1.08;;;;;;;13.45;85.04;101001.56;5035765;28;20060;-61
2023/12/25 08:20:10;;;;;;;4.47;1.17;;;;;;;13.56;85.08;100999.28;5050078;28;20060;-60
2023/12/25 08:22:37;;;;;;;5.88;1.00;;;;;;;13.43;85.67;101003.03;5052865;28;20067;-62
2023/12/25 08:25:06;;;;;;;5.30;0.82;;;;;;;13.33;86.75;101001.41;5034773;28;20404;-62
2023/12/25 08:27:40;;;;;;;5.32;0.77;;;;;;;13.61;85.27;101007.41;5051837;28;20428;-62
2023/12/25 08:30:08;;;;;;;4.45;0.95;;;;;;;13.57;85.43;101011.97;5050955;28;20040;-64
2023/12/25 08:32:35;;;;;;;6.20;1.08;;;;;;;13.63;85.11;101018.16;5034659;28;20911;-60
2023/12/25 08:35:04;;;;;;;5.35;1.02;;;;;;;13.71;84.96;101018.16;5052682;28;20060;-62
2023/12/25 08:37:40;;;;;;;4.40;0.98;;;;;;;13.71;84.49;101011.78;5020657;28;20389;-64
2023/12/25 08:40:29;;;;;;;3.70;0.95;;;;;;;13.78;83.94;101014.88;5026892;28;20060;-61
2023/12/25 08:43:04;;;;;;;5.32;1.05;;;;;;;13.69;84.46;101017.66;5035102;28;20057;-64
2023/12/25 08:45:32;;;;;;;3.60;0.75;;;;;;;13.61;84.79;101023.19;5018022;28;20685;-61
2023/12/25 08:48:00;;;;;;;5.78;1.20;;;;;;;13.55;85.31;101025.31;5030435;28;20045;-61
2023/12/25 08:50:28;;;;;;;3.55;0.95;;;;;;;13.55;84.34;101028.09;5031392;28;20037;-60
2023/12/25 08:52:55;;;;;;;5.30;0.90;;;;;;;13.30;84.50;101031.66;5032321;28;20053;-61
2023/12/25 08:55:24;;;;;;;7.10;1.17;;;;;;;13.52;84.03;101042.59;5033678;28;21202;-62
2023/12/25 08:57:51;;;;;;;4.30;1.13;;;;;;;13.65;83.27;101041.59;5028083;28;20056;-60
2023/12/25 09:00:20;;;;;;;4.78;0.85;;;;;;;13.68;82.79;101034.59;5050740;28;20056;-61
2023/12/25 09:02:47;;;;;;;2.63;0.55;;;;;;;13.52;82.33;101032.34;5033356;28;20059;-66
2023/12/25 09:05:15;;;;;;;7.25;0.75;;;;;;;13.56;82.89;101036.06;5053394;28;20056;-65
2023/12/25 09:07:43;;;;;;;5.40;1.02;;;;;;;13.62;82.95;101041.44;5038351;28;20056;-68
2023/12/25 09:10:40;;;;;;;6.75;0.85;;;;;;;13.85;82.68;101034.59;5036061;28;20044;-66
2023/12/25 09:13:08;;;;;;;4.72;0.60;;;;;;;13.71;83.07;101048.59;5056444;28;20053;-66
2023/12/25 09:15:46;;;;;;;5.85;0.98;;;;;;;13.66;83.19;101046.00;5056217;28;20056;-66
2023/12/25 09:18:25;;;;;;;4.10;0.90;;;;;;;13.31;84.94;101045.19;5041039;28;20242;-68
2023/12/25 09:20:52;;;;;;;3.70;0.90;;;;;;;13.58;83.88;101055.94;5056388;28;20049;-69
2023/12/25 09:23:20;;;;;;;4.15;0.73;;;;;;;13.70;83.26;101051.69;5037618;28;20451;-65
2023/12/25 09:25:51;;;;;;;6.65;0.77;;;;;;;13.74;82.41;101047.94;5056766;28;20052;-65
2023/12/25 09:28:18;;;;;;;3.42;0.68;;;;;;;13.71;83.24;101050.56;5056435;28;20052;-66
2023/12/25 09:30:46;;;;;;;10.38;5.18;;;;;;;13.65;83.78;101063.72;5021330;28;20145;-68
2023/12/25 09:33:13;;;;;;;3.55;1.48;;;;;;;13.86;83.44;101063.91;5038100;28;20447;-66
2023/12/25 09:39:18;;;;;;;8.98;1.20;;;;;;;13.80;84.00;101077.09;5008339;28;20596;-66
2023/12/25 09:41:49;;;;;;;3.35;0.70;;;;;;;13.84;83.83;101072.56;5055720;28;20535;-65
2023/12/25 09:44:30;;;;;;;6.53;0.77;;;;;;;13.57;84.97;101070.91;5055605;28;20051;-66
2023/12/25 09:46:59;;;;;;;4.82;1.33;;;;;;;13.77;84.82;101079.72;5037915;28;20061;-67
2023/12/25 09:49:29;;;;;;;4.13;1.00;;;;;;;13.75;85.30;101082.81;5034684;28;20064;-67
2023/12/25 09:51:58;;;;;;;7.53;1.45;;;;;;;13.80;85.55;101076.28;5033308;28;20041;-67
2023/12/25 09:54:27;;;;;;;4.40;1.20;;;;;;;13.67;87.00;101088.34;5062769;28;20041;-67
2023/12/25 09:56:55;;;;;;;7.32;1.10;;;;;;;13.72;88.01;101083.44;5035976;28;20530;-67
2023/12/25 09:59:27;;;;;;;3.65;1.02;;;;;;;13.68;88.28;101076.94;5017097;28;20065;-67
2023/12/25 10:02:00;;;;;;;7.28;2.00;;;;;;;13.56;90.12;101077.56;5033926;28;20038;-67
2023/12/25 10:04:36;;;;;;;3.83;1.00;;;;;;;13.57;91.07;101079.22;5024945;28;20543;-68
2023/12/25 10:07:12;;;;;;;6.63;1.17;;;;;;;13.41;92.37;101091.06;5036040;28;20045;-68
2023/12/25 10:09:42;;;;;;;3.97;0.80;;;;;;;13.64;92.04;101095.34;5022628;28;20057;-66
2023/12/25 10:12:21;;;;;;;5.53;1.25;;;;;;;13.58;92.83;101080.84;5053770;28;20049;-67
2023/12/25 10:15:26;;;;;;;6.30;1.15;;;;;;;13.76;93.23;101089.97;5050762;28;20041;-62
2023/12/25 10:18:07;;;;;;;4.78;1.25;;;;;;;13.65;93.41;101080.34;5037010;28;20057;-63
2023/12/25 10:20:44;;;;;;;7.13;1.45;;;;;;;13.61;94.57;101082.16;5055025;28;20382;-61
2023/12/25 10:23:12;;;;;;;5.35;1.10;;;;;;;13.90;92.90;101084.25;5036731;28;20060;-61
2023/12/25 10:25:49;;;;;;;4.95;0.98;;;;;;;13.69;93.50;101086.03;5038041;28;20067;-60
2023/12/25 10:28:16;;;;;;;5.93;1.20;;;;;;;13.78;93.05;101081.31;5019910;28;20068;-61
2023/12/25 10:30:43;;;;;;;5.75;1.13;;;;;;;13.60;93.01;101076.94;5016452;28;20394;-60
2023/12/25 10:33:13;;;;;;;5.13;1.17;;;;;;;13.65;92.86;101082.31;5034233;28;20037;-66
2023/12/25 10:35:41;;;;;;;4.47;1.27;;;;;;;13.90;91.58;101073.19;5034666;28;20053;-66
2023/12/25 10:38:20;;;;;;;5.45;1.17;;;;;;;13.94;91.45;101077.75;5033302;28;20046;-61
2023/12/25 10:40:47;;;;;;;8.23;1.67;;;;;;;13.79;91.55;101081.00;5032805;28;20052;-63
2023/12/25 10:43:37;;;;;;;8.23;4.32;;;;;;;13.54;92.90;101090.13;5035692;28;20064;-69
2023/12/25 10:46:09;;;;;;;7.68;2.97;;;;;;;13.50;93.62;101084.41;5037623;28;20067;-63
2023/12/25 10:48:37;;;;;;;7.20;1.77;;;;;;;13.50;94.13;101070.59;5031928;28;20065;-62
2023/12/25 10:51:05;;;;;;;7.15;3.10;;;;;;;13.69;93.14;101067.50;5008379;28;20500;-61
2023/12/25 10:53:33;;;;;;;4.57;1.60;;;;;;;13.70;92.68;101060.84;5053454;28;20061;-63
2023/12/25 10:56:11;;;;;;;5.68;1.27;;;;;;;13.70;92.20;101062.78;5033374;28;20045;-63
2023/12/25 10:58:43;;;;;;;7.47;1.63;;;;;;;13.60;92.49;101060.34;5043057;28;20045;-62
2023/12/25 11:01:10;;;;;;;5.25;1.35;;;;;;;13.62;92.93;101063.56;5028780;28;20131;-61
2023/12/25 11:03:37;;;;;;;6.47;1.40;;;;;;;13.68;92.13;101059.50;5034227;28;20195;-60
2023/12/25 11:06:06;;;;;;;6.13;1.50;;;;;;;13.36;91.87;101064.38;5031717;28;20045;-61
2023/12/25 11:08:33;;;;;;;9.55;1.77;;;;;;;13.48;92.42;101060.97;5015614;28;20049;-64
2023/12/25 11:11:05;;;;;;;7.00;1.92;;;;;;;13.26;93.66;101067.47;5022133;28;20132;-61
2023/12/25 11:13:32;;;;;;;11.05;2.47;;;;;;;13.35;94.21;101059.19;5053655;28;20051;-62
2023/12/25 11:16:00;;;;;;;11.38;2.15;;;;;;;13.70;93.07;101054.47;5051714;28;20053;-60
2023/12/25 11:18:27;;;;;;;9.90;2.00;;;;;;;13.67;92.73;101050.38;5053908;28;20057;-62
2023/12/25 11:21:09;;;;;;;11.18;2.00;;;;;;;13.68;92.61;101037.38;5053213;28;20045;-62
2023/12/25 11:23:41;;;;;;;10.35;2.03;;;;;;;13.70;92.76;101037.88;5052016;28;20041;-62
2023/12/25 11:27:02;;;;;;;10.32;3.15;;;;;;;13.97;91.86;101023.66;5021174;28;20052;-62
2023/12/25 11:29:30;;;;;;;8.00;1.80;;;;;;;13.97;90.13;101026.41;5040385;28;20053;-65
2023/12/25 11:32:08;;;;;;;10.52;2.45;;;;;;;14.00;89.38;101026.56;5035287;28;20060;-67
2023/12/25 11:35:27;;;;;;;;;;;;;;;;;;;;;
2023/12/25 11:38:50;;;;;;;11.95;2.10;;;;;;;14.24;87.85;101024.06;5047351;28;20543;-65